createdAt,value
2019-05-07T05:34:18.460Z,13.15
2019-05-07T05:37:04.367Z,12.98
2019-05-07T05:42:22.535Z,12.37
2019-05-07T05:44:58.570Z,13.22
2019-05-07T05:47:38.400Z,14.23
2019-05-07T05:50:14.850Z,14.50
2019-05-07T05:52:58.243Z,15.28
2019-05-07T05:55:52.705Z,13.48
2019-05-07T05:58:32.631Z,14.95
2019-05-07T06:01:25.363Z,15.70
2019-05-07T06:04:16.073Z,15.13
2019-05-07T06:08:03.688Z,16.12
2019-05-07T06:10:47.522Z,15.95
2019-05-07T06:13:28.180Z,16.30
2019-05-07T06:16:12.543Z,15.65
2019-05-07T06:18:52.432Z,16.40
2019-05-07T06:21:41.880Z,15.98
2019-05-07T06:24:18.223Z,17.00
2019-05-07T06:26:52.961Z,16.00
2019-05-07T06:29:28.289Z,16.60
2019-05-07T06:32:06.460Z,16.75
2019-05-07T06:34:44.269Z,16.52
2019-05-07T06:37:16.166Z,16.52
2019-05-07T06:42:52.721Z,16.85
2019-05-07T06:45:36.875Z,15.10
2019-05-07T06:48:12.586Z,16.67
2019-05-07T06:51:03.250Z,15.40
2019-05-07T06:54:36.268Z,15.40
2019-05-07T06:58:05.377Z,14.23
2019-05-07T07:00:42.239Z,16.73
2019-05-07T07:03:24.577Z,15.23
2019-05-07T07:06:05.522Z,17.00
2019-05-07T07:08:43.173Z,16.95
2019-05-07T07:11:22.302Z,15.95
2019-05-07T07:13:55.686Z,18.32
2019-05-07T07:16:29.584Z,16.93
2019-05-07T07:19:04.194Z,18.10
2019-05-07T07:21:42.196Z,16.90
2019-05-07T07:24:22.908Z,18.12
2019-05-07T07:26:56.442Z,17.07
2019-05-07T07:29:32.458Z,17.55
2019-05-07T07:32:13.334Z,17.57
2019-05-07T07:34:53.312Z,17.57
2019-05-07T07:37:27.207Z,17.82
2019-05-07T07:42:34.193Z,16.95
2019-05-07T07:45:22.915Z,17.92
2019-05-07T07:47:57.226Z,17.05
2019-05-07T07:50:33.024Z,15.25
2019-05-07T07:53:14.879Z,16.95
2019-05-07T07:56:17.108Z,16.35
2019-05-07T07:58:54.724Z,16.02
2019-05-07T08:01:46.092Z,16.57
2019-05-07T08:04:19.866Z,16.73
2019-05-07T08:07:08.454Z,17.42
2019-05-07T08:09:45.749Z,16.87
2019-05-07T08:12:18.371Z,16.05
2019-05-07T08:14:51.905Z,16.60
2019-05-07T08:17:25.933Z,17.60
2019-05-07T08:20:02.555Z,16.70
2019-05-07T08:22:49.369Z,17.00
2019-05-07T08:25:52.648Z,16.17
2019-05-07T08:28:29.189Z,15.63
2019-05-07T08:31:16.097Z,16.95
2019-05-07T08:33:56.098Z,16.23
2019-05-07T08:36:34.778Z,16.10
2019-05-07T08:39:13.033Z,15.90
2019-05-07T08:42:54.096Z,15.45
2019-05-07T08:45:55.511Z,15.58
2019-05-07T08:48:36.858Z,15.85
2019-05-07T08:51:11.916Z,14.85
2019-05-07T08:53:54.308Z,15.80
2019-05-07T08:56:35.034Z,15.35
2019-05-07T08:59:13.492Z,14.15
2019-05-07T09:01:48.952Z,15.35
2019-05-07T09:04:25.860Z,15.65
2019-05-07T09:07:02.797Z,15.40
2019-05-07T09:09:43.897Z,15.40
2019-05-07T09:12:17.877Z,14.55
2019-05-07T09:14:53.138Z,14.73
2019-05-07T09:17:26.561Z,15.58
2019-05-07T09:19:58.942Z,14.50
2019-05-07T09:22:43.303Z,14.93
2019-05-07T09:25:17.052Z,14.53
2019-05-07T09:27:59.233Z,15.41
2019-05-07T09:30:57.458Z,14.80
2019-05-07T09:33:37.500Z,15.30
2019-05-07T09:36:12.211Z,14.58
2019-05-07T09:38:58.372Z,14.07
2019-05-07T09:41:48.456Z,14.38
2019-05-07T09:44:23.694Z,13.75
2019-05-07T09:50:01.050Z,13.75
2019-05-07T09:52:45.582Z,14.07
2019-05-07T09:55:27.996Z,13.72
2019-05-07T09:58:02.395Z,14.23
2019-05-07T10:00:42.386Z,13.13
2019-05-07T10:03:25.726Z,13.15
2019-05-07T10:06:03.390Z,14.03
2019-05-07T10:08:41.906Z,12.80
2019-05-07T10:11:22.450Z,13.10
2019-05-07T10:14:12.481Z,12.98
2019-05-07T10:16:52.545Z,12.03
2019-05-07T10:19:32.462Z,12.93
2019-05-07T10:22:08.582Z,13.38
2019-05-07T10:25:05.059Z,13.62
2019-05-07T10:27:41.922Z,13.75
2019-05-07T10:30:21.858Z,13.08
2019-05-07T10:33:01.789Z,12.15
2019-05-07T10:35:43.978Z,13.48
2019-05-07T10:38:18.206Z,13.05
2019-05-07T10:43:46.453Z,12.88
2019-05-07T10:46:24.646Z,12.00
2019-05-07T10:49:06.651Z,12.70
2019-05-07T10:51:42.413Z,12.20
2019-05-07T10:54:25.517Z,11.75
2019-05-07T10:56:59.800Z,10.53
2019-05-07T10:59:32.619Z,11.18
2019-05-07T11:02:12.601Z,11.57
2019-05-07T11:04:47.839Z,10.00
2019-05-07T11:09:56.660Z,10.05
2019-05-07T11:12:33.042Z,9.05
2019-05-07T11:15:17.305Z,9.08
2019-05-07T11:18:02.683Z,8.45
2019-05-07T11:20:49.874Z,9.30
2019-05-07T11:23:18.474Z,9.43
2019-05-07T11:25:54.804Z,10.08
2019-05-07T11:28:29.014Z,10.10
2019-05-07T11:31:06.539Z,9.35
2019-05-07T11:33:41.942Z,8.95
2019-05-07T11:36:20.663Z,9.15
2019-05-07T11:38:54.913Z,9.03
2019-05-07T11:41:51.791Z,9.80
2019-05-07T11:44:32.118Z,9.18
2019-05-07T11:47:13.030Z,8.50
2019-05-07T11:50:06.616Z,8.10
2019-05-07T11:58:12.986Z,8.18
2019-05-07T12:00:46.180Z,7.45
2019-05-07T12:03:25.328Z,7.22
2019-05-07T12:06:04.574Z,7.00
2019-05-07T12:08:49.752Z,6.20
2019-05-07T12:11:23.542Z,5.72
2019-05-07T12:14:05.148Z,5.92
2019-05-07T12:16:44.677Z,5.42
2019-05-07T12:19:35.493Z,5.45
2019-05-07T12:22:09.226Z,5.12
2019-05-07T12:24:45.677Z,5.20
2019-05-07T12:27:23.058Z,5.25
2019-05-07T12:30:01.745Z,5.70
2019-05-07T12:34:43.482Z,5.20
2019-05-07T12:37:18.689Z,5.62
2019-05-07T12:39:54.285Z,5.03
2019-05-07T12:42:38.065Z,4.92
2019-05-07T12:46:52.444Z,4.33
2019-05-07T12:50:18.056Z,4.45
2019-05-07T12:53:03.690Z,4.30
2019-05-07T12:59:07.295Z,3.77
2019-05-07T13:04:22.249Z,4.50
2019-05-07T13:07:02.806Z,4.50
2019-05-07T13:09:40.047Z,4.17
2019-05-07T13:12:13.612Z,4.05
2019-05-07T13:14:52.216Z,3.80
2019-05-07T13:17:30.173Z,3.70
2019-05-07T13:20:14.333Z,3.67
2019-05-07T13:29:02.358Z,3.72
2019-05-07T13:31:38.252Z,3.60
2019-05-07T13:34:14.012Z,3.85
2019-05-07T13:36:51.640Z,4.10
2019-05-07T13:39:27.481Z,3.75
2019-05-07T13:42:08.019Z,3.85
2019-05-07T13:45:15.882Z,4.05
2019-05-07T13:47:56.679Z,3.25
2019-05-07T13:50:32.724Z,3.00
2019-05-07T13:53:22.834Z,3.30
2019-05-07T13:56:03.913Z,3.20
2019-05-07T13:58:42.865Z,3.30
2019-05-07T14:01:35.580Z,3.20
2019-05-07T14:04:09.317Z,3.65
2019-05-07T14:06:43.263Z,3.33
2019-05-07T14:09:32.637Z,3.33
2019-05-07T14:12:08.034Z,3.80
2019-05-07T14:14:53.007Z,3.67
2019-05-07T14:17:29.151Z,3.25
2019-05-07T14:20:08.166Z,3.00
2019-05-07T14:22:59.052Z,2.85
2019-05-07T14:25:32.532Z,3.20
2019-05-07T14:28:08.136Z,3.65
2019-05-07T14:30:42.665Z,3.60
2019-05-07T14:33:22.708Z,3.20
2019-05-07T14:36:05.387Z,2.62
2019-05-07T14:38:53.754Z,3.77
2019-05-07T14:41:32.595Z,2.98
2019-05-07T14:44:22.209Z,3.40
2019-05-07T14:47:16.567Z,3.10
2019-05-07T14:49:57.750Z,3.40
2019-05-07T14:52:44.170Z,3.02
2019-05-07T14:55:22.134Z,3.17
2019-05-07T14:58:02.300Z,3.00
2019-05-07T15:00:39.667Z,3.12
2019-05-07T15:03:13.916Z,3.62
2019-05-07T15:05:48.834Z,3.15
2019-05-07T15:11:19.690Z,3.52
2019-05-07T15:16:47.483Z,4.22
2019-05-07T15:19:32.115Z,3.22
2019-05-07T15:22:08.068Z,3.47
2019-05-07T15:24:42.773Z,3.52
2019-05-07T15:27:22.799Z,3.20
2019-05-07T15:30:17.759Z,2.85
2019-05-07T15:33:02.251Z,2.98
2019-05-07T15:35:35.579Z,3.10
2019-05-07T15:38:12.057Z,3.47
2019-05-07T15:40:44.844Z,3.02
2019-05-07T15:43:18.868Z,2.70
2019-05-07T15:45:52.436Z,3.22
2019-05-07T15:48:35.041Z,2.95
2019-05-07T15:51:11.864Z,3.05
2019-05-07T15:53:52.164Z,2.80
2019-05-07T15:56:24.711Z,2.80
2019-05-07T15:59:14.418Z,2.92
2019-05-07T16:01:52.102Z,3.10
2019-05-07T16:07:45.149Z,3.10
2019-05-07T16:10:17.789Z,16.32
2019-05-07T16:13:06.241Z,3.22
2019-05-07T16:15:38.977Z,3.00
2019-05-07T16:18:14.010Z,2.83
2019-05-07T16:20:52.269Z,2.77
2019-05-07T16:23:27.674Z,2.70
2019-05-07T16:29:04.709Z,2.92
2019-05-07T16:31:44.178Z,2.75
2019-05-07T16:34:22.019Z,2.83
2019-05-07T16:36:57.405Z,2.80
2019-05-07T16:39:42.183Z,2.80
2019-05-07T16:42:17.837Z,3.17
2019-05-07T16:44:52.335Z,3.20
2019-05-07T16:47:35.200Z,2.52
2019-05-07T16:50:16.062Z,2.77
2019-05-07T16:52:53.012Z,2.55
2019-05-07T16:55:29.884Z,2.75
2019-05-07T16:58:09.521Z,2.98
2019-05-07T17:00:45.375Z,2.60
2019-05-07T17:03:25.468Z,3.02
2019-05-07T17:05:58.562Z,2.92
2019-05-07T17:08:43.679Z,3.17
2019-05-07T17:11:18.781Z,2.98
2019-05-07T17:13:51.982Z,3.15
2019-05-07T17:16:31.757Z,3.10
2019-05-07T17:21:52.072Z,3.10
2019-05-07T17:24:27.319Z,2.95
2019-05-07T17:27:24.982Z,3.00
2019-05-07T17:30:04.048Z,3.02
2019-05-07T17:32:36.922Z,3.20
2019-05-07T17:35:14.951Z,3.45
2019-05-07T17:40:25.102Z,4.10
2019-05-07T17:43:05.465Z,3.62
2019-05-07T17:45:43.571Z,4.20
2019-05-07T17:48:15.926Z,4.22
2019-05-07T17:51:08.869Z,4.22
2019-05-07T17:54:16.019Z,3.77
2019-05-07T17:56:52.666Z,4.42
2019-05-07T17:59:34.144Z,4.58
2019-05-07T18:02:10.220Z,4.37
2019-05-07T18:04:50.927Z,4.28
2019-05-07T18:07:22.339Z,4.75
2019-05-07T18:10:06.511Z,4.22
2019-05-07T18:12:44.142Z,4.30
2019-05-07T18:15:17.403Z,4.25
2019-05-07T18:18:02.869Z,4.37
2019-05-07T18:20:43.350Z,3.83
2019-05-07T18:23:24.147Z,3.65
2019-05-07T18:26:05.638Z,4.00
2019-05-07T18:28:43.236Z,4.33
2019-05-07T18:31:17.113Z,3.77
2019-05-07T18:33:59.346Z,4.03
2019-05-07T18:36:42.360Z,4.58
2019-05-07T18:39:20.233Z,4.55
2019-05-07T18:41:52.265Z,4.67
2019-05-07T18:45:04.833Z,4.92
2019-05-07T18:47:44.461Z,4.70
2019-05-07T18:50:17.251Z,5.17
2019-05-07T18:52:57.403Z,5.33
2019-05-07T19:09:01.085Z,4.83
2019-05-07T19:14:23.128Z,4.60
2019-05-07T19:17:07.075Z,4.97
2019-05-07T19:19:52.494Z,5.92
2019-05-07T19:22:53.584Z,5.65
2019-05-07T19:25:45.178Z,5.90
2019-05-07T19:28:25.688Z,6.26
2019-05-07T19:31:12.496Z,6.08
2019-05-07T19:33:49.502Z,6.62
2019-05-07T19:36:38.432Z,6.10
2019-05-07T19:39:13.500Z,6.80
2019-05-07T19:41:54.450Z,6.30
2019-05-07T19:44:30.375Z,6.92
2019-05-07T19:47:08.143Z,7.42
2019-05-07T19:50:41.942Z,7.72
2019-05-07T19:53:23.733Z,7.65
2019-05-07T20:01:24.747Z,7.70
2019-05-07T20:06:59.079Z,12.33
2019-05-07T20:09:37.563Z,12.47
2019-05-07T20:12:17.389Z,11.48
2019-05-07T20:14:59.620Z,30.10
2019-05-07T20:17:37.946Z,12.85
2019-05-07T20:23:18.705Z,9.03
2019-05-07T20:25:56.871Z,8.48
2019-05-07T20:28:57.246Z,8.10
2019-05-07T20:31:42.337Z,8.20
2019-05-07T20:34:22.016Z,7.97
2019-05-07T20:37:06.329Z,8.70
2019-05-07T20:39:42.220Z,9.18
2019-05-07T20:42:18.186Z,8.40
2019-05-07T20:45:02.846Z,8.83
2019-05-07T20:47:36.434Z,8.75
2019-05-07T20:50:16.547Z,9.40
2019-05-07T20:52:56.442Z,9.23
2019-05-07T20:55:52.949Z,8.88
2019-05-07T20:58:26.534Z,8.55
2019-05-07T21:01:02.946Z,10.25
2019-05-07T21:03:47.187Z,10.72
2019-05-07T21:06:22.874Z,10.25
2019-05-07T21:09:04.895Z,10.08
2019-05-07T21:11:44.475Z,10.13
2019-05-07T21:14:43.338Z,9.53
2019-05-07T21:17:16.562Z,10.93
2019-05-07T21:19:51.907Z,15.53
2019-05-07T21:22:31.983Z,11.50
2019-05-07T21:25:04.956Z,11.78
2019-05-07T21:27:39.278Z,11.73
2019-05-07T21:30:17.496Z,14.07
2019-05-07T21:33:04.307Z,13.32
2019-05-07T21:35:52.467Z,14.78
2019-05-07T21:38:36.685Z,16.82
2019-05-07T21:41:09.160Z,18.50
2019-05-07T21:43:46.194Z,26.05
2019-05-07T21:46:27.118Z,19.45
2019-05-07T21:49:04.173Z,18.20
2019-05-07T21:51:41.241Z,14.03
2019-05-07T21:54:23.730Z,10.58
2019-05-07T21:57:06.351Z,11.15
2019-05-07T21:59:44.658Z,11.53
2019-05-07T22:02:26.913Z,8.08
2019-05-07T22:04:59.537Z,8.48
2019-05-07T22:10:14.525Z,9.00
2019-05-07T22:15:31.868Z,8.50
2019-05-07T22:18:04.238Z,10.32
2019-05-07T22:23:32.338Z,9.00
2019-05-07T22:26:20.370Z,9.45
2019-05-07T22:28:54.456Z,9.30
2019-05-07T22:31:55.320Z,9.03
2019-05-07T22:34:37.400Z,8.43
2019-05-07T22:37:21.821Z,8.70
2019-05-07T22:40:08.292Z,8.98
2019-05-07T22:42:44.657Z,8.73
2019-05-07T22:45:22.738Z,10.00
2019-05-07T22:47:58.317Z,8.93
2019-05-07T22:50:47.487Z,9.48
2019-05-07T22:53:26.131Z,10.32
2019-05-07T22:55:58.400Z,9.45
2019-05-07T22:58:36.408Z,9.27
2019-05-07T23:01:33.838Z,10.48
2019-05-07T23:04:06.533Z,10.48
2019-05-07T23:06:43.710Z,11.12
2019-05-07T23:09:24.470Z,9.60
2019-05-07T23:12:07.160Z,9.38
2019-05-07T23:14:46.807Z,7.70
2019-05-07T23:17:28.219Z,7.97
2019-05-07T23:20:09.004Z,8.50
2019-05-07T23:22:44.021Z,8.70
2019-05-07T23:25:32.220Z,8.43
2019-05-07T23:28:06.398Z,7.67
2019-05-07T23:33:23.625Z,8.10
2019-05-07T23:39:04.195Z,7.80
2019-05-07T23:41:43.512Z,8.33
2019-05-07T23:44:26.765Z,8.38
2019-05-07T23:47:05.205Z,8.98
2019-05-07T23:49:43.011Z,8.73
2019-05-07T23:52:22.543Z,7.95
2019-05-07T23:55:07.481Z,8.33
2019-05-07T23:57:43.129Z,8.15
